Impacts TAF Board
For situational awareness. Not to be used for flight planning purposes.
IDs:

KAPF - Naples Muni, FL, US

Issued at 1720 UTC 21 Sep 2021
Updated at 2030 UTC 21 Sep 2021
Potential Impact None Slight Moderate High
Time2002Z 21/21Z 21/22Z 21/23Z 22/00Z 22/01Z 22/02Z 22/03Z 22/04Z 22/05Z 22/06Z 22/07Z 22/08Z 22/09Z>>
Type OBS PRVL PRVL PRVL PRVL PRVL PRVL PRVL PRVL PRVL PRVL PRVL PRVL PRVL
VIS 7 >6 >6 >6 >6 >6 >6 >6 >6 >6 >6 >6 >6 >6
CIG 95 -- -- -- -- -- -- -- -- -- -- -- -- --
Cover BKN SCT SCT SCT SCT SCT SCT SCT SCT SCT SCT SCT SCT SCT
FltCat VFR VFR VFR VFR VFR VFR VFR VFR VFR VFR VFR VFR VFR VFR
WX -RA VCTS VCTS VCTS -- -- -- -- -- -- -- -- -- --
WDir 110 230 230 230 VRB VRB VRB VRB VRB VRB VRB VRB VRB VRB
WSpd 3 8 8 8 4 4 4 4 4 4 4 4 4 4
WGst -- -- -- -- -- -- -- -- -- -- -- -- -- --
Raw TAF
KAPF 211720Z 2118/2218 23008KT P6SM VCTS SCT030CB SCT060
  TEMPO 2118/2120 VRB10G25KT 2SM TSRA SCT015 BKN025CB
  FM220000 VRB04KT P6SM FEW025 SCT250
  FM221700 24008KT P6SM VCSH SCT030 SCT060


Raw METAR
KAPF 212002Z 11003KT 7SM -RA SCT017 BKN095 BKN110 26/24 A3001 RMK AO2 LTG DSNT NE AND E T02560244 PNO
KAPF 211953Z 15004KT 4SM -RA BR BKN017 BKN034 OVC110 26/25 A3001 RMK AO2 LTG DSNT NW-E SLP161 T02610250 PNO
KAPF 211946Z 00000KT 4SM -RA BR BKN075 OVC110 26/25 A3001 RMK AO2 LTG DSNT ALQDS T02610250 PNO
KAPF 211905Z 00000KT 5SM VCTS -RA BR OVC100 26/25 A3001 RMK AO2 LTG DSNT ALQDS T02610250 PNO
KAPF 211853Z 24006KT 10SM -RA FEW018 BKN080 OVC100 26/24 A3000 RMK AO2 LTG DSNT N-E TSE01B06E21 SLP157 T02610244 PNO
KAPF 211827Z 00000KT 6SM -RA BR FEW012 BKN043 OVC100 26/24 A3002 RMK AO2 LTG DSNT N AND NE TSE01B06E21 T02560244 PNO
KAPF 211812Z 08004KT 3SM TSRA BR FEW024 BKN043 OVC100 25/24 A3002 RMK AO2 LTG DSNT N AND NE TSE01B06 T02500239 PNO
KAPF 211801Z 01005KT 3SM VCTS RA BR FEW018 SCT026 OVC041 25/24 A3003 RMK AO2 LTG DSNT N AND NE TSE01 T02500239 PNO
KAPF 211753Z 01005KT 4SM -TSRA BR FEW018 BKN027 OVC046 25/23 A3004 RMK AO2 LTG DSNT N TSB05 SLP170 6//// T02500233 10322 20244 55004 PNO

METAR Board
Radar Display
Forecast Discussion
For situational awareness. Not to be used for flight planning purposes.